This is the latest recevied weather packets stored in our database for station/object IW4DZV-13. If no packets are shown the sender has not sent any weather packets the latest 10 day(s).
| Time | Temp. | Humidity | Pressure | Rain* | Wind** | Luminosity | Snow |
|---|---|---|---|---|---|---|---|
| 1787377537 | 20° C | 94% | 1011.4 hPa | 0.51 mm | - | 146 W/m² | - |
| 1787376634 | 19.44° C | 94% | 1011.2 hPa | 0.51 mm | - | 104 W/m² | - |
| 1787375735 | 18.89° C | 94% | 1011 hPa | 0.51 mm | - | 33 W/m² | - |
| 1787374829 | 18.33° C | 94% | 1010.9 hPa | 0.51 mm | - | 23 W/m² | - |
| 1787373927 | 18.33° C | 93% | 1010.8 hPa | 0.51 mm | - | 11 W/m² | - |
| 1787373029 | 18.33° C | 93% | 1010.5 hPa | 0.51 mm | - | 0 W/m² | - |
| 1787372123 | 18.33° C | 93% | 1010.4 hPa | 0.51 mm | - | 0 W/m² | - |
| 1787371221 | 18.33° C | 93% | 1010.2 hPa | 0.51 mm | - | 0 W/m² | - |
| 1787370322 | 18.89° C | 93% | 1010.2 hPa | 0.51 mm | - | 0 W/m² | - |
| 1787369420 | 18.89° C | 93% | 1010.1 hPa | 0.51 mm | - | 0 W/m² | - |
| 1787368528 | 18.89° C | 93% | 1010 hPa | 0.51 mm | - | 0 W/m² | - |
| 1787367620 | 18.89° C | 93% | 1010.1 hPa | 0.51 mm | - | 0 W/m² | - |
| 1787366717 | 18.89° C | 93% | 1010.2 hPa | 0.51 mm | - | 0 W/m² | - |
| 1787365816 | 18.89° C | 93% | 1010.1 hPa | 0.51 mm | - | 0 W/m² | - |
| 1787364916 | 18.89° C | 93% | 1010 hPa | 0.51 mm | - | 0 W/m² | - |
| 1787364013 | 19.44° C | 93% | 1009.8 hPa | 0.25 mm | - | 0 W/m² | - |
| 1787363127 | 19.44° C | 93% | 1009.8 hPa | 0.25 mm | - | 0 W/m² | - |
| 1787362213 | 19.44° C | 93% | 1009.8 hPa | 0.25 mm | - | 0 W/m² | - |
| 1787361311 | 19.44° C | 93% | 1009.8 hPa | 0.25 mm | - | 0 W/m² | - |
| 1787360410 | 19.44° C | 93% | 1009.5 hPa | 0.25 mm | - | 0 W/m² | - |
| 1787359510 | 19.44° C | 93% | 1009.6 hPa | 0.25 mm | - | 0 W/m² | - |
| 1787358611 | 19.44° C | 93% | 1009.6 hPa | 0.25 mm | - | 0 W/m² | - |
| 1787357710 | 19.44° C | 93% | 1009.6 hPa | 0.25 mm | - | 0 W/m² | - |
| 1787356808 | 19.44° C | 93% | 1009.5 hPa | 0.25 mm | - | 0 W/m² | - |
* Rain since midnight (hover to see other rain measurements)
** Current wind speed in m/s (hover to see current wind gust speed)